sensor_id;sensor_type;location;lat;lon;timestamp;pressure;altitude;pressure_sealevel;temperature;humidity
72038;BME280;59900;50.788;12.904;2022-12-24T00:02:12;96371.38;;;9.90;80.07
72038;BME280;59900;50.788;12.904;2022-12-24T00:04:37;96380.72;;;9.86;80.19
72038;BME280;59900;50.788;12.904;2022-12-24T00:07:02;96386.19;;;9.84;80.51
72038;BME280;59900;50.788;12.904;2022-12-24T00:09:28;96397.56;;;9.78;80.44
72038;BME280;59900;50.788;12.904;2022-12-24T00:11:53;96376.00;;;9.76;80.79
72038;BME280;59900;50.788;12.904;2022-12-24T00:14:18;96383.72;;;9.71;80.37
72038;BME280;59900;50.788;12.904;2022-12-24T00:16:43;96397.41;;;9.73;79.84
72038;BME280;59900;50.788;12.904;2022-12-24T00:19:09;96401.84;;;9.73;79.96
72038;BME280;59900;50.788;12.904;2022-12-24T00:21:34;96403.84;;;9.77;80.03
72038;BME280;59900;50.788;12.904;2022-12-24T00:23:59;96409.28;;;9.76;79.68
72038;BME280;59900;50.788;12.904;2022-12-24T00:26:27;96397.78;;;9.77;79.71
72038;BME280;59900;50.788;12.904;2022-12-24T00:28:53;96414.34;;;9.77;79.51
72038;BME280;59900;50.788;12.904;2022-12-24T00:31:18;96399.38;;;9.78;79.71
72038;BME280;59900;50.788;12.904;2022-12-24T00:33:46;96416.28;;;9.82;79.43
72038;BME280;59900;50.788;12.904;2022-12-24T00:36:12;96421.78;;;9.80;79.07
72038;BME280;59900;50.788;12.904;2022-12-24T00:38:38;96407.19;;;9.84;78.79
72038;BME280;59900;50.788;12.904;2022-12-24T00:41:05;96410.16;;;9.88;79.10
72038;BME280;59900;50.788;12.904;2022-12-24T00:43:48;96415.41;;;9.88;78.71
72038;BME280;59900;50.788;12.904;2022-12-24T00:46:13;96443.28;;;9.89;79.04
72038;BME280;59900;50.788;12.904;2022-12-24T00:48:38;96434.00;;;9.86;79.14
72038;BME280;59900;50.788;12.904;2022-12-24T00:51:03;96425.34;;;9.86;78.94
72038;BME280;59900;50.788;12.904;2022-12-24T00:53:29;96437.66;;;9.85;79.36
72038;BME280;59900;50.788;12.904;2022-12-24T00:55:54;96432.03;;;9.82;80.01
72038;BME280;59900;50.788;12.904;2022-12-24T00:58:19;96445.38;;;9.80;80.32
72038;BME280;59900;50.788;12.904;2022-12-24T01:00:44;96438.16;;;9.76;80.42
72038;BME280;59900;50.788;12.904;2022-12-24T01:03:10;96440.41;;;9.72;80.82
72038;BME280;59900;50.788;12.904;2022-12-24T01:05:35;96451.69;;;9.73;80.82
72038;BME280;59900;50.788;12.904;2022-12-24T01:08:00;96446.06;;;9.69;81.30
72038;BME280;59900;50.788;12.904;2022-12-24T01:10:25;96454.38;;;9.66;80.75
72038;BME280;59900;50.788;12.904;2022-12-24T01:12:51;96449.13;;;9.66;80.68
72038;BME280;59900;50.788;12.904;2022-12-24T01:15:16;96450.97;;;9.66;81.10
72038;BME280;59900;50.788;12.904;2022-12-24T01:17:42;96448.78;;;9.63;81.74
72038;BME280;59900;50.788;12.904;2022-12-24T01:20:13;96464.72;;;9.61;81.56
72038;BME280;59900;50.788;12.904;2022-12-24T01:22:38;96474.63;;;9.59;81.90
72038;BME280;59900;50.788;12.904;2022-12-24T01:25:04;96456.28;;;9.59;81.95
72038;BME280;59900;50.788;12.904;2022-12-24T01:27:29;96462.53;;;9.58;81.64
72038;BME280;59900;50.788;12.904;2022-12-24T01:29:55;96463.72;;;9.62;81.88
72038;BME280;59900;50.788;12.904;2022-12-24T01:32:20;96467.34;;;9.61;82.15
72038;BME280;59900;50.788;12.904;2022-12-24T01:34:45;96471.78;;;9.61;81.65
72038;BME280;59900;50.788;12.904;2022-12-24T01:37:10;96472.81;;;9.60;81.66
72038;BME280;59900;50.788;12.904;2022-12-24T01:39:36;96472.97;;;9.65;81.34
72038;BME280;59900;50.788;12.904;2022-12-24T01:42:01;96475.78;;;9.63;81.47
72038;BME280;59900;50.788;12.904;2022-12-24T01:44:48;96478.22;;;9.65;80.95
72038;BME280;59900;50.788;12.904;2022-12-24T01:47:28;96484.25;;;9.65;80.98
72038;BME280;59900;50.788;12.904;2022-12-24T01:49:59;96482.44;;;9.66;81.28
72038;BME280;59900;50.788;12.904;2022-12-24T01:52:29;96491.53;;;9.63;81.28
72038;BME280;59900;50.788;12.904;2022-12-24T01:54:59;96491.34;;;9.65;81.23
72038;BME280;59900;50.788;12.904;2022-12-24T01:57:39;96492.34;;;9.64;81.65
72038;BME280;59900;50.788;12.904;2022-12-24T02:00:09;96497.38;;;9.65;81.55
72038;BME280;59900;50.788;12.904;2022-12-24T02:02:39;96505.69;;;9.62;81.70
72038;BME280;59900;50.788;12.904;2022-12-24T02:05:08;96495.19;;;9.62;82.13
72038;BME280;59900;50.788;12.904;2022-12-24T02:07:36;96502.03;;;9.63;82.14
72038;BME280;59900;50.788;12.904;2022-12-24T02:10:03;96504.88;;;9.62;82.23
72038;BME280;59900;50.788;12.904;2022-12-24T02:12:31;96503.25;;;9.61;82.04
72038;BME280;59900;50.788;12.904;2022-12-24T02:14:59;96508.50;;;9.61;81.97
72038;BME280;59900;50.788;12.904;2022-12-24T02:17:31;96508.94;;;9.57;82.55
72038;BME280;59900;50.788;12.904;2022-12-24T02:26:10;96519.28;;;9.52;83.23
72038;BME280;59900;50.788;12.904;2022-12-24T02:29:04;96512.22;;;9.53;83.42
72038;BME280;59900;50.788;12.904;2022-12-24T02:31:42;96513.00;;;9.53;83.40
72038;BME280;59900;50.788;12.904;2022-12-24T02:34:25;96530.56;;;9.53;83.12
72038;BME280;59900;50.788;12.904;2022-12-24T02:36:57;96530.75;;;9.51;83.17
72038;BME280;59900;50.788;12.904;2022-12-24T02:39:38;96538.63;;;9.51;83.36
72038;BME280;59900;50.788;12.904;2022-12-24T02:42:05;96534.44;;;9.50;83.27
72038;BME280;59900;50.788;12.904;2022-12-24T02:44:49;96535.81;;;9.53;83.21
72038;BME280;59900;50.788;12.904;2022-12-24T02:47:17;96534.78;;;9.54;82.95
72038;BME280;59900;50.788;12.904;2022-12-24T02:49:46;96543.44;;;9.54;82.87
72038;BME280;59900;50.788;12.904;2022-12-24T02:52:35;96548.13;;;9.52;82.67
72038;BME280;59900;50.788;12.904;2022-12-24T02:55:07;96548.69;;;9.54;82.51
72038;BME280;59900;50.788;12.904;2022-12-24T02:57:49;96551.53;;;9.53;82.78
72038;BME280;59900;50.788;12.904;2022-12-24T03:00:20;96579.16;;;9.55;82.04
72038;BME280;59900;50.788;12.904;2022-12-24T03:03:25;96569.47;;;9.56;82.25
72038;BME280;59900;50.788;12.904;2022-12-24T03:06:10;96568.09;;;9.53;82.35
72038;BME280;59900;50.788;12.904;2022-12-24T03:08:57;96576.53;;;9.55;82.46
72038;BME280;59900;50.788;12.904;2022-12-24T03:11:24;96577.53;;;9.54;82.51
72038;BME280;59900;50.788;12.904;2022-12-24T03:13:50;96576.97;;;9.52;82.33
72038;BME280;59900;50.788;12.904;2022-12-24T03:16:22;96571.13;;;9.50;82.27
72038;BME280;59900;50.788;12.904;2022-12-24T03:18:49;96578.19;;;9.50;82.33
72038;BME280;59900;50.788;12.904;2022-12-24T03:21:21;96595.75;;;9.49;81.96
72038;BME280;59900;50.788;12.904;2022-12-24T03:23:48;96588.69;;;9.50;81.66
72038;BME280;59900;50.788;12.904;2022-12-24T03:26:15;96607.84;;;9.50;81.75
72038;BME280;59900;50.788;12.904;2022-12-24T03:28:42;96603.19;;;9.52;81.63
72038;BME280;59900;50.788;12.904;2022-12-24T03:31:08;96601.81;;;9.50;81.81
72038;BME280;59900;50.788;12.904;2022-12-24T03:33:34;96597.38;;;9.50;82.01
72038;BME280;59900;50.788;12.904;2022-12-24T03:36:00;96607.47;;;9.47;82.23
72038;BME280;59900;50.788;12.904;2022-12-24T03:38:25;96610.50;;;9.44;82.03
72038;BME280;59900;50.788;12.904;2022-12-24T03:40:50;96608.09;;;9.42;82.08
72038;BME280;59900;50.788;12.904;2022-12-24T03:43:16;96615.75;;;9.44;81.83
72038;BME280;59900;50.788;12.904;2022-12-24T03:45:41;96624.03;;;9.41;82.11
72038;BME280;59900;50.788;12.904;2022-12-24T03:48:06;96614.97;;;9.37;82.02
72038;BME280;59900;50.788;12.904;2022-12-24T03:50:31;96645.84;;;9.35;81.60
72038;BME280;59900;50.788;12.904;2022-12-24T03:52:57;96635.94;;;9.37;82.07
72038;BME280;59900;50.788;12.904;2022-12-24T03:55:22;96639.00;;;9.34;81.73
72038;BME280;59900;50.788;12.904;2022-12-24T03:57:47;96656.75;;;9.32;81.73
72038;BME280;59900;50.788;12.904;2022-12-24T04:00:13;96654.94;;;9.32;81.53
72038;BME280;59900;50.788;12.904;2022-12-24T04:02:39;96667.06;;;9.33;81.24
72038;BME280;59900;50.788;12.904;2022-12-24T04:05:06;96649.31;;;9.29;81.61
72038;BME280;59900;50.788;12.904;2022-12-24T04:07:32;96670.94;;;9.24;81.31
72038;BME280;59900;50.788;12.904;2022-12-24T04:09:57;96684.63;;;9.26;80.93
72038;BME280;59900;50.788;12.904;2022-12-24T04:12:22;96666.47;;;9.25;81.08
72038;BME280;59900;50.788;12.904;2022-12-24T04:14:47;96699.53;;;9.26;80.88
72038;BME280;59900;50.788;12.904;2022-12-24T04:17:14;96681.19;;;9.26;80.93
72038;BME280;59900;50.788;12.904;2022-12-24T04:19:39;96693.09;;;9.22;80.93
72038;BME280;59900;50.788;12.904;2022-12-24T04:22:05;96694.13;;;9.21;80.62
72038;BME280;59900;50.788;12.904;2022-12-24T04:24:30;96695.72;;;9.22;80.91
72038;BME280;59900;50.788;12.904;2022-12-24T04:26:55;96697.16;;;9.18;80.48
72038;BME280;59900;50.788;12.904;2022-12-24T04:29:20;96697.97;;;9.18;79.86
72038;BME280;59900;50.788;12.904;2022-12-24T04:31:46;96720.75;;;9.18;79.45
72038;BME280;59900;50.788;12.904;2022-12-24T04:34:11;96706.84;;;9.17;79.54
72038;BME280;59900;50.788;12.904;2022-12-24T04:36:37;96725.00;;;9.19;79.22
72038;BME280;59900;50.788;12.904;2022-12-24T04:39:02;96714.50;;;9.19;79.09
72038;BME280;59900;50.788;12.904;2022-12-24T04:41:27;96729.63;;;9.17;78.49
72038;BME280;59900;50.788;12.904;2022-12-24T04:43:53;96728.81;;;9.16;78.76
72038;BME280;59900;50.788;12.904;2022-12-24T04:46:22;96737.88;;;9.20;78.21
72038;BME280;59900;50.788;12.904;2022-12-24T04:48:49;96744.75;;;9.15;78.49
72038;BME280;59900;50.788;12.904;2022-12-24T04:51:16;96744.53;;;9.16;78.30
72038;BME280;59900;50.788;12.904;2022-12-24T04:53:42;96750.00;;;9.15;78.19
72038;BME280;59900;50.788;12.904;2022-12-24T04:56:19;96750.81;;;9.15;78.28
72038;BME280;59900;50.788;12.904;2022-12-24T04:58:46;96747.38;;;9.15;78.11
72038;BME280;59900;50.788;12.904;2022-12-24T05:01:13;96762.88;;;9.16;78.03
72038;BME280;59900;50.788;12.904;2022-12-24T05:03:40;96760.66;;;9.13;77.98
72038;BME280;59900;50.788;12.904;2022-12-24T05:06:07;96777.44;;;9.12;77.99
72038;BME280;59900;50.788;12.904;2022-12-24T05:08:33;96768.16;;;9.10;77.59
72038;BME280;59900;50.788;12.904;2022-12-24T05:10:59;96751.41;;;9.11;77.20
72038;BME280;59900;50.788;12.904;2022-12-24T05:13:26;96771.97;;;9.07;77.33
72038;BME280;59900;50.788;12.904;2022-12-24T05:15:52;96761.72;;;9.06;77.44
72038;BME280;59900;50.788;12.904;2022-12-24T05:18:18;96754.06;;;9.04;77.50
72038;BME280;59900;50.788;12.904;2022-12-24T05:20:44;96766.94;;;8.99;77.39
72038;BME280;59900;50.788;12.904;2022-12-24T05:23:15;96762.13;;;9.02;77.45
72038;BME280;59900;50.788;12.904;2022-12-24T05:25:59;96768.56;;;9.00;77.28
72038;BME280;59900;50.788;12.904;2022-12-24T05:28:43;96773.81;;;9.00;77.10
72038;BME280;59900;50.788;12.904;2022-12-24T05:31:08;96785.28;;;8.99;77.63
72038;BME280;59900;50.788;12.904;2022-12-24T05:33:34;96798.00;;;8.95;77.42
72038;BME280;59900;50.788;12.904;2022-12-24T05:35:59;96798.00;;;8.95;77.58
72038;BME280;59900;50.788;12.904;2022-12-24T05:38:24;96798.81;;;8.96;77.03
72038;BME280;59900;50.788;12.904;2022-12-24T05:40:49;96789.53;;;8.93;76.92
72038;BME280;59900;50.788;12.904;2022-12-24T05:43:15;96790.75;;;8.91;76.63
72038;BME280;59900;50.788;12.904;2022-12-24T05:45:40;96819.75;;;8.89;76.64
72038;BME280;59900;50.788;12.904;2022-12-24T05:48:05;96814.97;;;8.86;76.50
72038;BME280;59900;50.788;12.904;2022-12-24T05:50:32;96819.56;;;8.84;76.53
72038;BME280;59900;50.788;12.904;2022-12-24T05:52:57;96820.59;;;8.83;76.68
72038;BME280;59900;50.788;12.904;2022-12-24T05:55:23;96838.53;;;8.80;76.40
72038;BME280;59900;50.788;12.904;2022-12-24T05:57:48;96858.09;;;8.77;75.93
72038;BME280;59900;50.788;12.904;2022-12-24T06:00:13;96842.38;;;8.77;75.68
72038;BME280;59900;50.788;12.904;2022-12-24T06:02:39;96832.88;;;8.76;75.90
72038;BME280;59900;50.788;12.904;2022-12-24T06:05:04;96851.63;;;8.73;75.45
72038;BME280;59900;50.788;12.904;2022-12-24T06:07:29;96850.63;;;8.68;75.20
72038;BME280;59900;50.788;12.904;2022-12-24T06:09:55;96863.50;;;8.69;75.00
72038;BME280;59900;50.788;12.904;2022-12-24T06:12:20;96881.63;;;8.64;75.41
72038;BME280;59900;50.788;12.904;2022-12-24T06:14:45;96887.47;;;8.66;75.36
72038;BME280;59900;50.788;12.904;2022-12-24T06:17:11;96884.66;;;8.68;75.09
72038;BME280;59900;50.788;12.904;2022-12-24T06:19:36;96883.25;;;8.65;74.82
72038;BME280;59900;50.788;12.904;2022-12-24T06:22:01;96896.53;;;8.64;75.06
72038;BME280;59900;50.788;12.904;2022-12-24T06:24:26;96899.38;;;8.62;75.03
72038;BME280;59900;50.788;12.904;2022-12-24T06:26:52;96895.53;;;8.65;74.91
72038;BME280;59900;50.788;12.904;2022-12-24T06:29:17;96897.56;;;8.63;74.78
72038;BME280;59900;50.788;12.904;2022-12-24T06:31:42;96899.16;;;8.64;74.68
72038;BME280;59900;50.788;12.904;2022-12-24T06:34:07;96900.56;;;8.66;74.77
72038;BME280;59900;50.788;12.904;2022-12-24T06:36:33;96916.28;;;8.66;74.89
72038;BME280;59900;50.788;12.904;2022-12-24T06:38:58;96919.91;;;8.65;75.21
72038;BME280;59900;50.788;12.904;2022-12-24T06:41:23;96921.91;;;8.63;75.64
72038;BME280;59900;50.788;12.904;2022-12-24T06:43:50;96930.78;;;8.62;76.26
72038;BME280;59900;50.788;12.904;2022-12-24T06:46:17;96932.56;;;8.55;77.47
72038;BME280;59900;50.788;12.904;2022-12-24T06:48:43;96946.25;;;8.44;79.80
72038;BME280;59900;50.788;12.904;2022-12-24T06:51:09;96957.06;;;8.34;81.21
72038;BME280;59900;50.788;12.904;2022-12-24T06:53:35;96957.88;;;8.28;82.14
72038;BME280;59900;50.788;12.904;2022-12-24T06:56:05;96943.69;;;8.16;83.45
72038;BME280;59900;50.788;12.904;2022-12-24T06:58:30;96948.53;;;8.13;84.49
72038;BME280;59900;50.788;12.904;2022-12-24T07:00:56;96950.09;;;8.07;85.05
72038;BME280;59900;50.788;12.904;2022-12-24T07:03:22;96954.50;;;8.00;86.25
72038;BME280;59900;50.788;12.904;2022-12-24T07:05:47;96974.59;;;8.00;86.42
72038;BME280;59900;50.788;12.904;2022-12-24T07:08:12;96960.72;;;7.99;86.96
72038;BME280;59900;50.788;12.904;2022-12-24T07:10:37;96961.72;;;7.98;86.99
72038;BME280;59900;50.788;12.904;2022-12-24T07:13:03;96963.94;;;7.95;88.18
72038;BME280;59900;50.788;12.904;2022-12-24T07:15:28;96966.50;;;7.88;88.60
72038;BME280;59900;50.788;12.904;2022-12-24T07:17:53;96971.72;;;7.88;89.37
72038;BME280;59900;50.788;12.904;2022-12-24T07:20:18;96972.34;;;7.90;89.32
72038;BME280;59900;50.788;12.904;2022-12-24T07:22:44;96978.16;;;7.85;89.14
72038;BME280;59900;50.788;12.904;2022-12-24T07:25:09;96971.31;;;7.84;89.94
72038;BME280;59900;50.788;12.904;2022-12-24T07:27:35;96976.34;;;7.86;90.06
72038;BME280;59900;50.788;12.904;2022-12-24T07:30:00;96975.09;;;7.82;90.18
72038;BME280;59900;50.788;12.904;2022-12-24T07:32:25;96988.63;;;7.85;90.53
72038;BME280;59900;50.788;12.904;2022-12-24T07:34:51;96976.91;;;7.81;90.98
72038;BME280;59900;50.788;12.904;2022-12-24T07:37:16;96982.72;;;7.77;91.00
72038;BME280;59900;50.788;12.904;2022-12-24T07:39:41;96984.75;;;7.75;90.82
72038;BME280;59900;50.788;12.904;2022-12-24T07:42:06;96995.81;;;7.77;90.60
72038;BME280;59900;50.788;12.904;2022-12-24T07:44:33;96994.63;;;7.79;90.24
72038;BME280;59900;50.788;12.904;2022-12-24T07:46:58;97002.91;;;7.83;88.93
72038;BME280;59900;50.788;12.904;2022-12-24T07:49:23;96997.88;;;7.88;89.21
72038;BME280;59900;50.788;12.904;2022-12-24T07:51:48;97005.94;;;7.86;88.48
72038;BME280;59900;50.788;12.904;2022-12-24T07:54:14;97004.38;;;7.92;88.02
72038;BME280;59900;50.788;12.904;2022-12-24T07:56:39;97003.59;;;7.98;87.93
72038;BME280;59900;50.788;12.904;2022-12-24T07:59:04;97013.84;;;8.00;87.05
72038;BME280;59900;50.788;12.904;2022-12-24T08:01:29;97015.47;;;8.01;86.99
72038;BME280;59900;50.788;12.904;2022-12-24T08:03:55;97030.78;;;8.04;86.41
72038;BME280;59900;50.788;12.904;2022-12-24T08:06:20;97024.16;;;8.01;86.55
72038;BME280;59900;50.788;12.904;2022-12-24T08:08:46;97034.22;;;8.04;86.40
72038;BME280;59900;50.788;12.904;2022-12-24T08:11:11;97038.66;;;8.10;86.15
72038;BME280;59900;50.788;12.904;2022-12-24T08:13:37;97036.69;;;8.12;84.92
72038;BME280;59900;50.788;12.904;2022-12-24T08:16:03;97043.13;;;8.10;83.76
72038;BME280;59900;50.788;12.904;2022-12-24T08:18:28;97053.75;;;8.08;84.01
72038;BME280;59900;50.788;12.904;2022-12-24T08:20:53;97054.78;;;8.07;82.77
72038;BME280;59900;50.788;12.904;2022-12-24T08:23:19;97048.72;;;8.07;81.83
72038;BME280;59900;50.788;12.904;2022-12-24T08:25:46;97051.56;;;8.12;81.97
72038;BME280;59900;50.788;12.904;2022-12-24T08:28:12;97046.34;;;8.12;82.01
72038;BME280;59900;50.788;12.904;2022-12-24T08:30:38;97053.97;;;8.13;81.58
72038;BME280;59900;50.788;12.904;2022-12-24T08:33:03;97049.19;;;8.17;81.43
72038;BME280;59900;50.788;12.904;2022-12-24T08:35:29;97050.75;;;8.11;81.23
72038;BME280;59900;50.788;12.904;2022-12-24T08:37:54;97053.81;;;8.15;80.96
72038;BME280;59900;50.788;12.904;2022-12-24T08:40:19;97062.28;;;8.17;80.73
72038;BME280;59900;50.788;12.904;2022-12-24T08:42:44;97058.28;;;8.21;80.64
72038;BME280;59900;50.788;12.904;2022-12-24T08:45:10;97051.63;;;8.25;80.24
72038;BME280;59900;50.788;12.904;2022-12-24T08:47:36;97062.09;;;8.25;80.42
72038;BME280;59900;50.788;12.904;2022-12-24T08:50:03;97059.78;;;8.30;79.57
72038;BME280;59900;50.788;12.904;2022-12-24T08:52:29;97067.03;;;8.34;79.42
72038;BME280;59900;50.788;12.904;2022-12-24T08:54:54;97073.69;;;8.37;78.88
72038;BME280;59900;50.788;12.904;2022-12-24T08:57:19;97075.91;;;8.40;78.49
72038;BME280;59900;50.788;12.904;2022-12-24T08:59:44;97075.53;;;8.43;79.02
72038;BME280;59900;50.788;12.904;2022-12-24T09:02:09;97071.94;;;8.44;78.28
72038;BME280;59900;50.788;12.904;2022-12-24T09:04:37;97086.06;;;8.50;78.13
72038;BME280;59900;50.788;12.904;2022-12-24T09:07:04;97097.34;;;8.50;77.70
72038;BME280;59900;50.788;12.904;2022-12-24T09:09:29;97089.91;;;8.54;78.10
72038;BME280;59900;50.788;12.904;2022-12-24T09:11:54;97101.81;;;8.56;77.87
72038;BME280;59900;50.788;12.904;2022-12-24T09:14:19;97094.97;;;8.62;78.29
72038;BME280;59900;50.788;12.904;2022-12-24T09:16:45;97097.22;;;8.65;78.08
72038;BME280;59900;50.788;12.904;2022-12-24T09:19:10;97107.47;;;8.66;77.82
72038;BME280;59900;50.788;12.904;2022-12-24T09:21:35;97107.31;;;8.68;77.98
72038;BME280;59900;50.788;12.904;2022-12-24T09:24:03;97101.25;;;8.67;78.59
72038;BME280;59900;50.788;12.904;2022-12-24T09:26:28;97106.06;;;8.64;79.08
72038;BME280;59900;50.788;12.904;2022-12-24T09:28:55;97098.63;;;8.67;79.21
72038;BME280;59900;50.788;12.904;2022-12-24T09:31:21;97112.97;;;8.71;79.81
72038;BME280;59900;50.788;12.904;2022-12-24T09:33:48;97116.41;;;8.72;79.61
72038;BME280;59900;50.788;12.904;2022-12-24T09:36:14;97118.22;;;8.71;79.86
72038;BME280;59900;50.788;12.904;2022-12-24T09:38:39;97137.53;;;8.70;80.25
72038;BME280;59900;50.788;12.904;2022-12-24T09:41:23;97130.66;;;8.63;80.82
72038;BME280;59900;50.788;12.904;2022-12-24T09:43:59;97130.88;;;8.68;80.95
72038;BME280;59900;50.788;12.904;2022-12-24T09:46:30;97138.53;;;8.69;81.45
72038;BME280;59900;50.788;12.904;2022-12-24T09:49:02;97146.00;;;8.66;81.79
72038;BME280;59900;50.788;12.904;2022-12-24T09:51:39;97146.59;;;8.68;81.88
72038;BME280;59900;50.788;12.904;2022-12-24T09:54:23;97137.91;;;8.67;82.32
72038;BME280;59900;50.788;12.904;2022-12-24T09:56:49;97160.03;;;8.58;83.16
72038;BME280;59900;50.788;12.904;2022-12-24T09:59:20;97164.22;;;8.53;83.58
72038;BME280;59900;50.788;12.904;2022-12-24T10:01:48;97182.94;;;8.50;83.81
72038;BME280;59900;50.788;12.904;2022-12-24T10:04:16;97165.81;;;8.47;84.10
72038;BME280;59900;50.788;12.904;2022-12-24T10:09:41;97170.66;;;8.50;84.77
72038;BME280;59900;50.788;12.904;2022-12-24T10:20:58;97146.59;;;8.68;85.38
72038;BME280;59900;50.788;12.904;2022-12-24T10:23:50;97153.06;;;8.72;85.18
72038;BME280;59900;50.788;12.904;2022-12-24T10:26:24;97163.56;;;8.78;85.00
72038;BME280;59900;50.788;12.904;2022-12-24T10:28:57;97159.97;;;8.79;85.11
72038;BME280;59900;50.788;12.904;2022-12-24T10:31:26;97164.84;;;8.89;84.92
72038;BME280;59900;50.788;12.904;2022-12-24T10:33:59;97168.91;;;8.91;84.45
72038;BME280;59900;50.788;12.904;2022-12-24T10:36:29;97175.38;;;9.02;84.29
72038;BME280;59900;50.788;12.904;2022-12-24T10:38:56;97177.03;;;9.10;83.48
72038;BME280;59900;50.788;12.904;2022-12-24T10:41:24;97176.03;;;9.11;82.89
72038;BME280;59900;50.788;12.904;2022-12-24T10:43:50;97173.47;;;9.24;83.18
72038;BME280;59900;50.788;12.904;2022-12-24T10:46:19;97177.69;;;9.25;82.36
72038;BME280;59900;50.788;12.904;2022-12-24T10:48:58;97180.31;;;9.25;81.98
72038;BME280;59900;50.788;12.904;2022-12-24T10:54:00;97175.06;;;9.25;82.26
72038;BME280;59900;50.788;12.904;2022-12-24T10:56:30;97180.91;;;9.20;82.05
72038;BME280;59900;50.788;12.904;2022-12-24T10:58:56;97192.59;;;9.18;82.42
72038;BME280;59900;50.788;12.904;2022-12-24T11:01:44;97200.25;;;9.13;82.24
72038;BME280;59900;50.788;12.904;2022-12-24T11:04:15;97195.41;;;9.10;83.02
72038;BME280;59900;50.788;12.904;2022-12-24T11:09:24;97203.59;;;9.00;83.17
72038;BME280;59900;50.788;12.904;2022-12-24T11:11:49;97204.41;;;9.00;83.75
72038;BME280;59900;50.788;12.904;2022-12-24T11:14:17;97204.84;;;9.04;83.49
72038;BME280;59900;50.788;12.904;2022-12-24T11:16:49;97212.72;;;9.04;83.10
72038;BME280;59900;50.788;12.904;2022-12-24T11:19:19;97213.50;;;9.05;83.17
72038;BME280;59900;50.788;12.904;2022-12-24T11:21:46;97216.13;;;9.05;82.39
72038;BME280;59900;50.788;12.904;2022-12-24T11:26:38;97229.47;;;9.10;82.50
72038;BME280;59900;50.788;12.904;2022-12-24T11:29:11;97236.31;;;9.11;82.08
72038;BME280;59900;50.788;12.904;2022-12-24T11:31:39;97231.09;;;9.17;82.27
72038;BME280;59900;50.788;12.904;2022-12-24T11:34:30;97223.25;;;9.17;81.87
72038;BME280;59900;50.788;12.904;2022-12-24T11:39:42;97232.53;;;9.20;82.19
72038;BME280;59900;50.788;12.904;2022-12-24T11:42:24;97228.53;;;9.24;81.91
72038;BME280;59900;50.788;12.904;2022-12-24T11:44:50;97231.16;;;9.24;81.74
72038;BME280;59900;50.788;12.904;2022-12-24T11:47:16;97224.28;;;9.23;81.27
72038;BME280;59900;50.788;12.904;2022-12-24T11:49:41;97233.78;;;9.24;81.67
72038;BME280;59900;50.788;12.904;2022-12-24T11:57:31;97238.00;;;9.25;81.45
72038;BME280;59900;50.788;12.904;2022-12-24T11:59:59;97248.31;;;9.26;81.53
72038;BME280;59900;50.788;12.904;2022-12-24T12:02:31;97242.44;;;9.24;81.65
72038;BME280;59900;50.788;12.904;2022-12-24T12:05:07;97243.22;;;9.25;81.85
72038;BME280;59900;50.788;12.904;2022-12-24T12:07:35;97249.28;;;9.25;81.61
72038;BME280;59900;50.788;12.904;2022-12-24T12:10:23;97249.13;;;9.27;81.51
72038;BME280;59900;50.788;12.904;2022-12-24T12:15:24;97239.00;;;9.24;81.08
72038;BME280;59900;50.788;12.904;2022-12-24T12:18:10;97246.06;;;9.23;81.67
72038;BME280;59900;50.788;12.904;2022-12-24T12:20:42;97252.13;;;9.24;81.67
72038;BME280;59900;50.788;12.904;2022-12-24T12:23:15;97250.91;;;9.26;81.88
72038;BME280;59900;50.788;12.904;2022-12-24T12:25:53;97251.75;;;9.27;82.02
72038;BME280;59900;50.788;12.904;2022-12-24T12:28:27;97247.31;;;9.27;81.81
72038;BME280;59900;50.788;12.904;2022-12-24T12:33:38;97251.38;;;9.36;82.08
72038;BME280;59900;50.788;12.904;2022-12-24T12:36:09;97244.56;;;9.42;81.94
72038;BME280;59900;50.788;12.904;2022-12-24T12:38:36;97244.34;;;9.43;81.31
72038;BME280;59900;50.788;12.904;2022-12-24T12:41:24;97239.13;;;9.50;80.84
72038;BME280;59900;50.788;12.904;2022-12-24T12:44:19;97247.59;;;9.52;80.37
72038;BME280;59900;50.788;12.904;2022-12-24T12:47:08;97264.56;;;9.56;80.53
72038;BME280;59900;50.788;12.904;2022-12-24T12:50:05;97274.84;;;9.57;79.87
72038;BME280;59900;50.788;12.904;2022-12-24T12:53:14;97269.47;;;9.66;79.97
72038;BME280;59900;50.788;12.904;2022-12-24T12:58:45;97265.25;;;9.71;79.24
72038;BME280;59900;50.788;12.904;2022-12-24T13:01:28;97264.63;;;9.76;79.21
72038;BME280;59900;50.788;12.904;2022-12-24T13:10:29;97259.59;;;9.74;78.64
72038;BME280;59900;50.788;12.904;2022-12-24T13:13:10;97257.56;;;9.70;78.72
72038;BME280;59900;50.788;12.904;2022-12-24T13:16:11;97256.53;;;9.64;78.78
72038;BME280;59900;50.788;12.904;2022-12-24T13:18:58;97255.09;;;9.62;78.54
72038;BME280;59900;50.788;12.904;2022-12-24T13:21:29;97248.88;;;9.63;78.44
72038;BME280;59900;50.788;12.904;2022-12-24T13:24:05;97254.28;;;9.61;78.45
72038;BME280;59900;50.788;12.904;2022-12-24T13:26:31;97256.75;;;9.63;78.70
72038;BME280;59900;50.788;12.904;2022-12-24T13:29:30;97256.91;;;9.61;78.23
72038;BME280;59900;50.788;12.904;2022-12-24T13:34:47;97263.78;;;9.62;78.44
72038;BME280;59900;50.788;12.904;2022-12-24T13:50:44;97303.84;;;9.43;76.00
72038;BME280;59900;50.788;12.904;2022-12-24T13:53:32;97301.44;;;9.41;76.17
72038;BME280;59900;50.788;12.904;2022-12-24T13:56:08;97307.06;;;9.38;75.68
72038;BME280;59900;50.788;12.904;2022-12-24T13:58:40;97303.63;;;9.38;76.21
72038;BME280;59900;50.788;12.904;2022-12-24T14:01:12;97297.38;;;9.39;75.77
72038;BME280;59900;50.788;12.904;2022-12-24T14:03:50;97297.38;;;9.39;75.56
72038;BME280;59900;50.788;12.904;2022-12-24T14:06:27;97300.34;;;9.29;75.61
72038;BME280;59900;50.788;12.904;2022-12-24T14:08:57;97307.41;;;9.29;75.85
72038;BME280;59900;50.788;12.904;2022-12-24T14:16:59;97316.09;;;9.29;76.72
72038;BME280;59900;50.788;12.904;2022-12-24T14:19:28;97324.56;;;9.31;76.55
72038;BME280;59900;50.788;12.904;2022-12-24T14:22:01;97326.56;;;9.29;77.07